sensor_id;sensor_type;location;lat;lon;timestamp;P1;durP1;ratioP1;P2;durP2;ratioP2
10653;SDS011;5375;51.250;6.776;2023-04-25T00:00:13;7.03;;;2.50;;
10653;SDS011;5375;51.250;6.776;2023-04-25T00:02:39;6.10;;;2.37;;
10653;SDS011;5375;51.250;6.776;2023-04-25T00:05:05;4.27;;;2.20;;
10653;SDS011;5375;51.250;6.776;2023-04-25T00:07:31;4.20;;;2.30;;
10653;SDS011;5375;51.250;6.776;2023-04-25T00:09:57;5.33;;;2.30;;
10653;SDS011;5375;51.250;6.776;2023-04-25T00:12:23;5.20;;;2.50;;
10653;SDS011;5375;51.250;6.776;2023-04-25T00:14:49;5.90;;;2.47;;
10653;SDS011;5375;51.250;6.776;2023-04-25T00:17:16;7.30;;;2.50;;
10653;SDS011;5375;51.250;6.776;2023-04-25T00:19:42;5.13;;;2.30;;
10653;SDS011;5375;51.250;6.776;2023-04-25T00:22:09;4.03;;;2.10;;
10653;SDS011;5375;51.250;6.776;2023-04-25T00:24:35;6.10;;;2.30;;
10653;SDS011;5375;51.250;6.776;2023-04-25T00:27:01;6.30;;;2.20;;
10653;SDS011;5375;51.250;6.776;2023-04-25T00:29:39;4.20;;;2.40;;
10653;SDS011;5375;51.250;6.776;2023-04-25T00:32:07;6.03;;;2.60;;
10653;SDS011;5375;51.250;6.776;2023-04-25T00:34:33;4.53;;;2.20;;
10653;SDS011;5375;51.250;6.776;2023-04-25T00:37:00;6.07;;;2.37;;
10653;SDS011;5375;51.250;6.776;2023-04-25T00:39:29;5.33;;;2.50;;
10653;SDS011;5375;51.250;6.776;2023-04-25T00:41:54;4.87;;;2.50;;
10653;SDS011;5375;51.250;6.776;2023-04-25T00:44:20;4.37;;;2.20;;
10653;SDS011;5375;51.250;6.776;2023-04-25T00:46:47;6.97;;;2.57;;
10653;SDS011;5375;51.250;6.776;2023-04-25T00:49:14;4.37;;;2.43;;
10653;SDS011;5375;51.250;6.776;2023-04-25T00:51:42;4.10;;;2.10;;
10653;SDS011;5375;51.250;6.776;2023-04-25T00:54:10;5.93;;;2.50;;
10653;SDS011;5375;51.250;6.776;2023-04-25T00:56:37;4.57;;;2.13;;
10653;SDS011;5375;51.250;6.776;2023-04-25T00:59:03;5.50;;;2.10;;
10653;SDS011;5375;51.250;6.776;2023-04-25T01:01:29;4.23;;;2.10;;
10653;SDS011;5375;51.250;6.776;2023-04-25T01:03:56;4.67;;;1.93;;
10653;SDS011;5375;51.250;6.776;2023-04-25T01:06:24;5.10;;;2.57;;
10653;SDS011;5375;51.250;6.776;2023-04-25T01:08:50;7.73;;;2.63;;
10653;SDS011;5375;51.250;6.776;2023-04-25T01:11:17;9.43;;;2.63;;
10653;SDS011;5375;51.250;6.776;2023-04-25T01:13:44;5.83;;;2.57;;
10653;SDS011;5375;51.250;6.776;2023-04-25T01:16:10;4.73;;;2.53;;
10653;SDS011;5375;51.250;6.776;2023-04-25T01:18:36;4.87;;;2.30;;
10653;SDS011;5375;51.250;6.776;2023-04-25T01:21:07;6.70;;;2.57;;
10653;SDS011;5375;51.250;6.776;2023-04-25T01:23:39;4.27;;;2.20;;
10653;SDS011;5375;51.250;6.776;2023-04-25T01:26:09;5.13;;;2.33;;
10653;SDS011;5375;51.250;6.776;2023-04-25T01:28:38;5.47;;;2.20;;
10653;SDS011;5375;51.250;6.776;2023-04-25T01:31:08;10.43;;;2.53;;
10653;SDS011;5375;51.250;6.776;2023-04-25T01:33:34;4.87;;;2.13;;
10653;SDS011;5375;51.250;6.776;2023-04-25T01:36:00;11.83;;;2.33;;
10653;SDS011;5375;51.250;6.776;2023-04-25T01:38:26;7.57;;;2.30;;
10653;SDS011;5375;51.250;6.776;2023-04-25T01:41:03;12.73;;;2.43;;
10653;SDS011;5375;51.250;6.776;2023-04-25T01:43:29;4.13;;;2.17;;
10653;SDS011;5375;51.250;6.776;2023-04-25T01:45:54;6.40;;;2.23;;
10653;SDS011;5375;51.250;6.776;2023-04-25T01:48:21;5.47;;;2.00;;
10653;SDS011;5375;51.250;6.776;2023-04-25T01:50:47;4.13;;;1.90;;
10653;SDS011;5375;51.250;6.776;2023-04-25T01:53:13;5.93;;;2.20;;
10653;SDS011;5375;51.250;6.776;2023-04-25T01:55:39;4.63;;;2.00;;
10653;SDS011;5375;51.250;6.776;2023-04-25T01:58:05;4.30;;;1.97;;
10653;SDS011;5375;51.250;6.776;2023-04-25T02:00:34;4.03;;;2.07;;
10653;SDS011;5375;51.250;6.776;2023-04-25T02:03:03;4.80;;;1.97;;
10653;SDS011;5375;51.250;6.776;2023-04-25T02:05:33;3.83;;;1.80;;
10653;SDS011;5375;51.250;6.776;2023-04-25T02:08:04;4.53;;;1.97;;
10653;SDS011;5375;51.250;6.776;2023-04-25T02:10:33;5.03;;;2.00;;
10653;SDS011;5375;51.250;6.776;2023-04-25T02:13:02;3.83;;;1.93;;
10653;SDS011;5375;51.250;6.776;2023-04-25T02:15:29;2.77;;;1.80;;
10653;SDS011;5375;51.250;6.776;2023-04-25T02:17:58;3.80;;;1.80;;
10653;SDS011;5375;51.250;6.776;2023-04-25T02:20:25;3.00;;;1.90;;
10653;SDS011;5375;51.250;6.776;2023-04-25T02:22:53;4.90;;;1.97;;
10653;SDS011;5375;51.250;6.776;2023-04-25T02:25:19;5.67;;;1.87;;
10653;SDS011;5375;51.250;6.776;2023-04-25T02:27:46;4.47;;;1.80;;
10653;SDS011;5375;51.250;6.776;2023-04-25T02:30:13;5.40;;;2.00;;
10653;SDS011;5375;51.250;6.776;2023-04-25T02:32:39;3.20;;;1.70;;
10653;SDS011;5375;51.250;6.776;2023-04-25T02:35:05;3.00;;;1.70;;
10653;SDS011;5375;51.250;6.776;2023-04-25T02:37:34;4.83;;;1.90;;
10653;SDS011;5375;51.250;6.776;2023-04-25T02:40:01;4.30;;;1.87;;
10653;SDS011;5375;51.250;6.776;2023-04-25T02:42:28;3.50;;;1.83;;
10653;SDS011;5375;51.250;6.776;2023-04-25T02:44:54;3.37;;;1.70;;
10653;SDS011;5375;51.250;6.776;2023-04-25T02:47:19;7.70;;;2.00;;
10653;SDS011;5375;51.250;6.776;2023-04-25T02:49:45;3.90;;;1.90;;
10653;SDS011;5375;51.250;6.776;2023-04-25T02:52:13;13.80;;;2.27;;
10653;SDS011;5375;51.250;6.776;2023-04-25T02:54:39;14.50;;;2.27;;
10653;SDS011;5375;51.250;6.776;2023-04-25T02:57:05;8.77;;;1.90;;
10653;SDS011;5375;51.250;6.776;2023-04-25T02:59:31;10.00;;;2.00;;
10653;SDS011;5375;51.250;6.776;2023-04-25T03:01:58;18.10;;;2.47;;
10653;SDS011;5375;51.250;6.776;2023-04-25T03:04:24;9.60;;;2.07;;
10653;SDS011;5375;51.250;6.776;2023-04-25T03:06:50;10.67;;;2.57;;
10653;SDS011;5375;51.250;6.776;2023-04-25T03:09:16;6.67;;;2.47;;
10653;SDS011;5375;51.250;6.776;2023-04-25T03:11:43;5.53;;;1.77;;
10653;SDS011;5375;51.250;6.776;2023-04-25T03:14:11;5.13;;;2.10;;
10653;SDS011;5375;51.250;6.776;2023-04-25T03:16:38;4.00;;;1.90;;
10653;SDS011;5375;51.250;6.776;2023-04-25T03:19:04;8.70;;;1.90;;
10653;SDS011;5375;51.250;6.776;2023-04-25T03:21:31;4.43;;;1.63;;
10653;SDS011;5375;51.250;6.776;2023-04-25T03:23:58;5.80;;;1.87;;
10653;SDS011;5375;51.250;6.776;2023-04-25T03:26:24;5.73;;;1.60;;
10653;SDS011;5375;51.250;6.776;2023-04-25T03:28:50;3.10;;;1.50;;
10653;SDS011;5375;51.250;6.776;2023-04-25T03:31:15;3.33;;;1.60;;
10653;SDS011;5375;51.250;6.776;2023-04-25T03:33:42;4.63;;;1.60;;
10653;SDS011;5375;51.250;6.776;2023-04-25T03:36:08;4.73;;;1.83;;
10653;SDS011;5375;51.250;6.776;2023-04-25T03:38:34;3.57;;;1.50;;
10653;SDS011;5375;51.250;6.776;2023-04-25T03:41:01;3.67;;;1.57;;
10653;SDS011;5375;51.250;6.776;2023-04-25T03:43:27;3.23;;;1.63;;
10653;SDS011;5375;51.250;6.776;2023-04-25T03:45:53;5.60;;;1.80;;
10653;SDS011;5375;51.250;6.776;2023-04-25T03:48:18;5.33;;;1.87;;
10653;SDS011;5375;51.250;6.776;2023-04-25T03:50:49;3.90;;;2.10;;
10653;SDS011;5375;51.250;6.776;2023-04-25T03:53:15;5.37;;;2.00;;
10653;SDS011;5375;51.250;6.776;2023-04-25T03:55:41;5.20;;;1.77;;
10653;SDS011;5375;51.250;6.776;2023-04-25T03:58:06;5.37;;;1.77;;
10653;SDS011;5375;51.250;6.776;2023-04-25T04:00:34;4.47;;;2.00;;
10653;SDS011;5375;51.250;6.776;2023-04-25T04:03:01;9.13;;;2.00;;
10653;SDS011;5375;51.250;6.776;2023-04-25T04:05:28;4.57;;;1.43;;
10653;SDS011;5375;51.250;6.776;2023-04-25T04:07:54;3.80;;;1.80;;
10653;SDS011;5375;51.250;6.776;2023-04-25T04:10:31;5.50;;;1.70;;
10653;SDS011;5375;51.250;6.776;2023-04-25T04:12:57;6.80;;;1.80;;
10653;SDS011;5375;51.250;6.776;2023-04-25T04:15:22;5.17;;;1.70;;
10653;SDS011;5375;51.250;6.776;2023-04-25T04:17:51;5.60;;;1.60;;
10653;SDS011;5375;51.250;6.776;2023-04-25T04:20:17;2.73;;;1.50;;
10653;SDS011;5375;51.250;6.776;2023-04-25T04:22:42;3.87;;;2.07;;
10653;SDS011;5375;51.250;6.776;2023-04-25T04:25:08;5.80;;;2.40;;
10653;SDS011;5375;51.250;6.776;2023-04-25T04:27:35;4.00;;;2.33;;
10653;SDS011;5375;51.250;6.776;2023-04-25T04:30:00;5.63;;;2.80;;
10653;SDS011;5375;51.250;6.776;2023-04-25T04:32:26;4.47;;;2.37;;
10653;SDS011;5375;51.250;6.776;2023-04-25T04:34:55;4.20;;;2.37;;
10653;SDS011;5375;51.250;6.776;2023-04-25T04:37:20;8.47;;;3.00;;
10653;SDS011;5375;51.250;6.776;2023-04-25T04:39:46;4.93;;;2.67;;
10653;SDS011;5375;51.250;6.776;2023-04-25T04:42:12;6.53;;;2.30;;
10653;SDS011;5375;51.250;6.776;2023-04-25T04:44:39;4.43;;;2.23;;
10653;SDS011;5375;51.250;6.776;2023-04-25T04:47:19;7.50;;;2.77;;
10653;SDS011;5375;51.250;6.776;2023-04-25T04:49:45;3.23;;;2.10;;
10653;SDS011;5375;51.250;6.776;2023-04-25T04:52:16;5.27;;;2.50;;
10653;SDS011;5375;51.250;6.776;2023-04-25T04:54:43;4.93;;;2.10;;
10653;SDS011;5375;51.250;6.776;2023-04-25T04:57:08;8.60;;;2.20;;
10653;SDS011;5375;51.250;6.776;2023-04-25T04:59:34;6.00;;;2.60;;
10653;SDS011;5375;51.250;6.776;2023-04-25T05:02:00;5.83;;;2.30;;
10653;SDS011;5375;51.250;6.776;2023-04-25T05:04:26;4.43;;;2.30;;
10653;SDS011;5375;51.250;6.776;2023-04-25T05:06:57;5.97;;;2.63;;
10653;SDS011;5375;51.250;6.776;2023-04-25T05:09:22;4.70;;;2.30;;
10653;SDS011;5375;51.250;6.776;2023-04-25T05:11:50;5.20;;;2.40;;
10653;SDS011;5375;51.250;6.776;2023-04-25T05:14:16;6.97;;;2.20;;
10653;SDS011;5375;51.250;6.776;2023-04-25T05:16:42;4.90;;;2.00;;
10653;SDS011;5375;51.250;6.776;2023-04-25T05:19:08;5.70;;;2.50;;
10653;SDS011;5375;51.250;6.776;2023-04-25T05:21:34;5.30;;;2.43;;
10653;SDS011;5375;51.250;6.776;2023-04-25T05:24:00;6.37;;;2.47;;
10653;SDS011;5375;51.250;6.776;2023-04-25T05:26:29;5.13;;;2.33;;
10653;SDS011;5375;51.250;6.776;2023-04-25T05:28:56;3.87;;;2.03;;
10653;SDS011;5375;51.250;6.776;2023-04-25T05:31:22;6.37;;;2.10;;
10653;SDS011;5375;51.250;6.776;2023-04-25T05:33:48;5.97;;;2.60;;
10653;SDS011;5375;51.250;6.776;2023-04-25T05:36:13;3.20;;;2.10;;
10653;SDS011;5375;51.250;6.776;2023-04-25T05:38:39;5.27;;;2.13;;
10653;SDS011;5375;51.250;6.776;2023-04-25T05:41:07;4.00;;;1.90;;
10653;SDS011;5375;51.250;6.776;2023-04-25T05:43:33;4.53;;;2.20;;
10653;SDS011;5375;51.250;6.776;2023-04-25T05:46:01;4.83;;;2.10;;
10653;SDS011;5375;51.250;6.776;2023-04-25T05:48:31;3.47;;;2.13;;
10653;SDS011;5375;51.250;6.776;2023-04-25T05:50:57;3.73;;;1.90;;
10653;SDS011;5375;51.250;6.776;2023-04-25T05:53:32;4.10;;;2.10;;
10653;SDS011;5375;51.250;6.776;2023-04-25T05:55:59;4.30;;;2.10;;
10653;SDS011;5375;51.250;6.776;2023-04-25T05:58:26;3.13;;;1.83;;
10653;SDS011;5375;51.250;6.776;2023-04-25T06:00:51;8.33;;;1.83;;
10653;SDS011;5375;51.250;6.776;2023-04-25T06:03:17;3.40;;;1.83;;
10653;SDS011;5375;51.250;6.776;2023-04-25T06:05:43;5.30;;;1.90;;
10653;SDS011;5375;51.250;6.776;2023-04-25T06:08:09;5.90;;;1.90;;
10653;SDS011;5375;51.250;6.776;2023-04-25T06:10:35;5.90;;;2.10;;
10653;SDS011;5375;51.250;6.776;2023-04-25T06:13:01;3.63;;;1.60;;
10653;SDS011;5375;51.250;6.776;2023-04-25T06:15:27;3.47;;;1.87;;
10653;SDS011;5375;51.250;6.776;2023-04-25T06:17:53;4.00;;;1.80;;
10653;SDS011;5375;51.250;6.776;2023-04-25T06:20:18;3.93;;;2.03;;
10653;SDS011;5375;51.250;6.776;2023-04-25T06:22:49;6.53;;;1.43;;
10653;SDS011;5375;51.250;6.776;2023-04-25T06:25:16;5.20;;;2.13;;
10653;SDS011;5375;51.250;6.776;2023-04-25T06:27:44;3.10;;;1.70;;
10653;SDS011;5375;51.250;6.776;2023-04-25T06:30:11;3.90;;;1.73;;
10653;SDS011;5375;51.250;6.776;2023-04-25T06:32:37;3.60;;;1.93;;
10653;SDS011;5375;51.250;6.776;2023-04-25T06:35:04;3.00;;;1.70;;
10653;SDS011;5375;51.250;6.776;2023-04-25T06:37:30;2.73;;;1.70;;
10653;SDS011;5375;51.250;6.776;2023-04-25T06:39:56;7.07;;;1.83;;
10653;SDS011;5375;51.250;6.776;2023-04-25T06:42:21;7.90;;;2.17;;
10653;SDS011;5375;51.250;6.776;2023-04-25T06:44:47;4.57;;;2.47;;
10653;SDS011;5375;51.250;6.776;2023-04-25T06:47:12;11.50;;;2.60;;
10653;SDS011;5375;51.250;6.776;2023-04-25T06:49:38;6.10;;;2.50;;
10653;SDS011;5375;51.250;6.776;2023-04-25T06:52:04;6.67;;;2.23;;
10653;SDS011;5375;51.250;6.776;2023-04-25T06:54:33;10.43;;;2.43;;
10653;SDS011;5375;51.250;6.776;2023-04-25T06:56:58;10.57;;;2.73;;
10653;SDS011;5375;51.250;6.776;2023-04-25T06:59:35;6.37;;;2.17;;
10653;SDS011;5375;51.250;6.776;2023-04-25T07:02:07;5.83;;;1.90;;
10653;SDS011;5375;51.250;6.776;2023-04-25T07:04:33;6.20;;;2.33;;
10653;SDS011;5375;51.250;6.776;2023-04-25T07:06:59;6.20;;;2.20;;
10653;SDS011;5375;51.250;6.776;2023-04-25T07:09:28;3.73;;;1.73;;
10653;SDS011;5375;51.250;6.776;2023-04-25T07:11:58;3.77;;;1.93;;
10653;SDS011;5375;51.250;6.776;2023-04-25T07:14:26;3.63;;;1.80;;
10653;SDS011;5375;51.250;6.776;2023-04-25T07:16:52;3.87;;;1.70;;
10653;SDS011;5375;51.250;6.776;2023-04-25T07:19:18;5.20;;;1.80;;
10653;SDS011;5375;51.250;6.776;2023-04-25T07:21:44;3.23;;;1.70;;
10653;SDS011;5375;51.250;6.776;2023-04-25T07:24:09;3.97;;;1.77;;
10653;SDS011;5375;51.250;6.776;2023-04-25T07:26:35;4.10;;;1.60;;
10653;SDS011;5375;51.250;6.776;2023-04-25T07:29:03;4.63;;;1.70;;
10653;SDS011;5375;51.250;6.776;2023-04-25T07:31:29;5.77;;;1.63;;
10653;SDS011;5375;51.250;6.776;2023-04-25T07:33:59;4.43;;;1.50;;
10653;SDS011;5375;51.250;6.776;2023-04-25T07:36:25;3.30;;;1.80;;
10653;SDS011;5375;51.250;6.776;2023-04-25T07:38:51;5.07;;;1.77;;
10653;SDS011;5375;51.250;6.776;2023-04-25T07:41:18;2.50;;;1.33;;
10653;SDS011;5375;51.250;6.776;2023-04-25T07:43:44;3.97;;;1.73;;
10653;SDS011;5375;51.250;6.776;2023-04-25T07:46:10;4.07;;;1.63;;
10653;SDS011;5375;51.250;6.776;2023-04-25T07:48:35;4.03;;;1.60;;
10653;SDS011;5375;51.250;6.776;2023-04-25T07:51:01;4.40;;;1.47;;
10653;SDS011;5375;51.250;6.776;2023-04-25T07:53:27;3.43;;;1.63;;
10653;SDS011;5375;51.250;6.776;2023-04-25T07:55:54;4.63;;;1.57;;
10653;SDS011;5375;51.250;6.776;2023-04-25T07:58:39;2.70;;;1.23;;
10653;SDS011;5375;51.250;6.776;2023-04-25T08:01:05;3.20;;;1.47;;
10653;SDS011;5375;51.250;6.776;2023-04-25T08:03:30;3.30;;;1.57;;
10653;SDS011;5375;51.250;6.776;2023-04-25T08:05:56;3.77;;;1.60;;
10653;SDS011;5375;51.250;6.776;2023-04-25T08:08:22;3.97;;;1.40;;
10653;SDS011;5375;51.250;6.776;2023-04-25T08:10:47;1.97;;;1.30;;
10653;SDS011;5375;51.250;6.776;2023-04-25T08:13:14;3.17;;;1.20;;
10653;SDS011;5375;51.250;6.776;2023-04-25T08:15:40;1.73;;;1.30;;
10653;SDS011;5375;51.250;6.776;2023-04-25T08:18:06;2.70;;;1.47;;
10653;SDS011;5375;51.250;6.776;2023-04-25T08:20:31;3.73;;;1.57;;
10653;SDS011;5375;51.250;6.776;2023-04-25T08:22:57;1.57;;;1.17;;
10653;SDS011;5375;51.250;6.776;2023-04-25T08:25:22;4.77;;;1.40;;
10653;SDS011;5375;51.250;6.776;2023-04-25T08:27:48;4.30;;;1.43;;
10653;SDS011;5375;51.250;6.776;2023-04-25T08:30:14;4.67;;;1.80;;
10653;SDS011;5375;51.250;6.776;2023-04-25T08:32:40;2.90;;;1.50;;
10653;SDS011;5375;51.250;6.776;2023-04-25T08:35:06;3.17;;;1.30;;
10653;SDS011;5375;51.250;6.776;2023-04-25T08:37:32;3.60;;;1.30;;
10653;SDS011;5375;51.250;6.776;2023-04-25T08:39:58;3.70;;;1.50;;
10653;SDS011;5375;51.250;6.776;2023-04-25T08:42:24;3.53;;;1.47;;
10653;SDS011;5375;51.250;6.776;2023-04-25T08:44:53;2.73;;;1.40;;
10653;SDS011;5375;51.250;6.776;2023-04-25T08:47:21;2.63;;;1.30;;
10653;SDS011;5375;51.250;6.776;2023-04-25T08:49:47;2.70;;;1.17;;
10653;SDS011;5375;51.250;6.776;2023-04-25T08:52:15;2.03;;;1.03;;
10653;SDS011;5375;51.250;6.776;2023-04-25T08:54:48;2.30;;;1.20;;
10653;SDS011;5375;51.250;6.776;2023-04-25T08:57:15;3.53;;;1.30;;
10653;SDS011;5375;51.250;6.776;2023-04-25T08:59:42;2.43;;;1.30;;
10653;SDS011;5375;51.250;6.776;2023-04-25T09:02:10;2.97;;;1.17;;
10653;SDS011;5375;51.250;6.776;2023-04-25T09:04:44;2.07;;;1.17;;
10653;SDS011;5375;51.250;6.776;2023-04-25T09:07:10;6.07;;;1.10;;
10653;SDS011;5375;51.250;6.776;2023-04-25T09:09:36;2.20;;;1.20;;
10653;SDS011;5375;51.250;6.776;2023-04-25T09:12:01;2.07;;;1.17;;
10653;SDS011;5375;51.250;6.776;2023-04-25T09:14:27;1.87;;;1.00;;
10653;SDS011;5375;51.250;6.776;2023-04-25T09:19:31;1.77;;;1.07;;
10653;SDS011;5375;51.250;6.776;2023-04-25T09:22:00;1.50;;;1.00;;
10653;SDS011;5375;51.250;6.776;2023-04-25T09:27:10;3.40;;;1.17;;
10653;SDS011;5375;51.250;6.776;2023-04-25T09:29:39;2.40;;;1.10;;
10653;SDS011;5375;51.250;6.776;2023-04-25T09:34:48;2.00;;;1.17;;
10653;SDS011;5375;51.250;6.776;2023-04-25T09:39:52;1.93;;;1.17;;
10653;SDS011;5375;51.250;6.776;2023-04-25T09:42:22;3.37;;;1.10;;
10653;SDS011;5375;51.250;6.776;2023-04-25T09:44:55;2.53;;;1.03;;
10653;SDS011;5375;51.250;6.776;2023-04-25T09:47:23;1.97;;;1.10;;
10653;SDS011;5375;51.250;6.776;2023-04-25T09:49:52;2.10;;;1.10;;
10653;SDS011;5375;51.250;6.776;2023-04-25T09:52:22;1.67;;;0.90;;
10653;SDS011;5375;51.250;6.776;2023-04-25T09:54:49;2.37;;;1.30;;
10653;SDS011;5375;51.250;6.776;2023-04-25T09:57:32;1.87;;;1.00;;
10653;SDS011;5375;51.250;6.776;2023-04-25T09:59:59;2.13;;;1.10;;
10653;SDS011;5375;51.250;6.776;2023-04-25T10:02:26;3.10;;;1.10;;
10653;SDS011;5375;51.250;6.776;2023-04-25T10:04:54;2.07;;;1.10;;
10653;SDS011;5375;51.250;6.776;2023-04-25T10:07:24;1.73;;;1.00;;
10653;SDS011;5375;51.250;6.776;2023-04-25T10:09:53;1.70;;;1.00;;
10653;SDS011;5375;51.250;6.776;2023-04-25T10:12:27;1.33;;;0.80;;
10653;SDS011;5375;51.250;6.776;2023-04-25T10:14:54;2.87;;;1.20;;
10653;SDS011;5375;51.250;6.776;2023-04-25T10:17:26;1.40;;;1.00;;
10653;SDS011;5375;51.250;6.776;2023-04-25T10:19:52;2.23;;;0.93;;
10653;SDS011;5375;51.250;6.776;2023-04-25T10:25:01;2.43;;;1.10;;
10653;SDS011;5375;51.250;6.776;2023-04-25T10:27:31;2.37;;;1.27;;
10653;SDS011;5375;51.250;6.776;2023-04-25T10:30:00;2.60;;;1.13;;
10653;SDS011;5375;51.250;6.776;2023-04-25T10:32:30;1.30;;;0.80;;
10653;SDS011;5375;51.250;6.776;2023-04-25T10:35:02;2.03;;;1.20;;
10653;SDS011;5375;51.250;6.776;2023-04-25T10:37:37;1.60;;;0.90;;
10653;SDS011;5375;51.250;6.776;2023-04-25T10:40:09;1.70;;;0.97;;
10653;SDS011;5375;51.250;6.776;2023-04-25T10:42:35;1.87;;;1.00;;
10653;SDS011;5375;51.250;6.776;2023-04-25T10:45:02;2.70;;;1.10;;
10653;SDS011;5375;51.250;6.776;2023-04-25T10:47:36;2.73;;;1.00;;
10653;SDS011;5375;51.250;6.776;2023-04-25T10:50:08;1.93;;;0.90;;
10653;SDS011;5375;51.250;6.776;2023-04-25T10:52:34;1.33;;;1.00;;
10653;SDS011;5375;51.250;6.776;2023-04-25T10:55:00;1.93;;;0.97;;
10653;SDS011;5375;51.250;6.776;2023-04-25T10:57:41;2.17;;;0.97;;
10653;SDS011;5375;51.250;6.776;2023-04-25T11:00:14;1.13;;;0.90;;
10653;SDS011;5375;51.250;6.776;2023-04-25T11:03:02;2.20;;;1.10;;
10653;SDS011;5375;51.250;6.776;2023-04-25T11:05:35;2.47;;;0.90;;
10653;SDS011;5375;51.250;6.776;2023-04-25T11:08:01;1.87;;;0.93;;
10653;SDS011;5375;51.250;6.776;2023-04-25T11:10:32;1.80;;;1.03;;
10653;SDS011;5375;51.250;6.776;2023-04-25T11:13:00;1.60;;;1.10;;
10653;SDS011;5375;51.250;6.776;2023-04-25T11:15:26;1.93;;;1.10;;
10653;SDS011;5375;51.250;6.776;2023-04-25T11:17:52;1.73;;;1.00;;
10653;SDS011;5375;51.250;6.776;2023-04-25T11:20:18;3.47;;;1.00;;
10653;SDS011;5375;51.250;6.776;2023-04-25T11:22:47;2.50;;;1.30;;
10653;SDS011;5375;51.250;6.776;2023-04-25T11:25:15;1.07;;;0.80;;
10653;SDS011;5375;51.250;6.776;2023-04-25T11:27:49;2.90;;;1.10;;
10653;SDS011;5375;51.250;6.776;2023-04-25T11:30:19;2.00;;;0.83;;
10653;SDS011;5375;51.250;6.776;2023-04-25T11:32:45;2.27;;;1.20;;
10653;SDS011;5375;51.250;6.776;2023-04-25T11:35:12;2.17;;;0.93;;
10653;SDS011;5375;51.250;6.776;2023-04-25T11:37:39;1.90;;;1.03;;
10653;SDS011;5375;51.250;6.776;2023-04-25T11:40:13;1.60;;;1.00;;
10653;SDS011;5375;51.250;6.776;2023-04-25T11:42:39;2.17;;;0.90;;
10653;SDS011;5375;51.250;6.776;2023-04-25T11:45:09;1.80;;;1.10;;
10653;SDS011;5375;51.250;6.776;2023-04-25T11:47:35;2.47;;;1.20;;
10653;SDS011;5375;51.250;6.776;2023-04-25T11:50:05;3.10;;;1.07;;
10653;SDS011;5375;51.250;6.776;2023-04-25T11:52:42;1.20;;;0.90;;
10653;SDS011;5375;51.250;6.776;2023-04-25T11:55:15;1.97;;;0.97;;
10653;SDS011;5375;51.250;6.776;2023-04-25T11:57:42;2.53;;;0.90;;
10653;SDS011;5375;51.250;6.776;2023-04-25T12:02:46;1.77;;;1.07;;
10653;SDS011;5375;51.250;6.776;2023-04-25T12:05:15;1.40;;;0.80;;
10653;SDS011;5375;51.250;6.776;2023-04-25T12:07:42;1.80;;;1.00;;
10653;SDS011;5375;51.250;6.776;2023-04-25T12:10:10;1.70;;;0.80;;
10653;SDS011;5375;51.250;6.776;2023-04-25T12:12:37;2.67;;;1.00;;
10653;SDS011;5375;51.250;6.776;2023-04-25T12:15:23;1.03;;;0.77;;
10653;SDS011;5375;51.250;6.776;2023-04-25T12:17:50;1.20;;;0.80;;
10653;SDS011;5375;51.250;6.776;2023-04-25T12:20:21;2.83;;;1.00;;
10653;SDS011;5375;51.250;6.776;2023-04-25T12:22:50;1.57;;;0.90;;
10653;SDS011;5375;51.250;6.776;2023-04-25T12:25:36;1.97;;;0.97;;
10653;SDS011;5375;51.250;6.776;2023-04-25T12:28:23;3.73;;;0.97;;
10653;SDS011;5375;51.250;6.776;2023-04-25T12:30:53;1.80;;;0.90;;
10653;SDS011;5375;51.250;6.776;2023-04-25T12:33:20;1.87;;;1.00;;
10653;SDS011;5375;51.250;6.776;2023-04-25T12:35:49;1.73;;;0.77;;
10653;SDS011;5375;51.250;6.776;2023-04-25T12:38:22;2.43;;;0.90;;
10653;SDS011;5375;51.250;6.776;2023-04-25T12:40:50;1.30;;;0.90;;
10653;SDS011;5375;51.250;6.776;2023-04-25T12:43:17;0.90;;;0.80;;
10653;SDS011;5375;51.250;6.776;2023-04-25T12:45:49;1.87;;;1.00;;
10653;SDS011;5375;51.250;6.776;2023-04-25T12:48:17;2.67;;;0.90;;
10653;SDS011;5375;51.250;6.776;2023-04-25T12:50:43;1.47;;;0.90;;
10653;SDS011;5375;51.250;6.776;2023-04-25T12:53:10;1.53;;;0.83;;
10653;SDS011;5375;51.250;6.776;2023-04-25T12:55:36;1.43;;;0.90;;
10653;SDS011;5375;51.250;6.776;2023-04-25T12:58:02;1.27;;;0.90;;
10653;SDS011;5375;51.250;6.776;2023-04-25T13:00:28;1.83;;;0.90;;
10653;SDS011;5375;51.250;6.776;2023-04-25T13:02:54;1.27;;;0.80;;
10653;SDS011;5375;51.250;6.776;2023-04-25T13:05:22;1.77;;;0.80;;
10653;SDS011;5375;51.250;6.776;2023-04-25T13:07:48;1.77;;;0.90;;
10653;SDS011;5375;51.250;6.776;2023-04-25T13:10:14;3.10;;;0.97;;
10653;SDS011;5375;51.250;6.776;2023-04-25T13:12:40;1.57;;;0.90;;
10653;SDS011;5375;51.250;6.776;2023-04-25T13:15:06;1.40;;;0.83;;
10653;SDS011;5375;51.250;6.776;2023-04-25T13:17:34;1.67;;;0.87;;
10653;SDS011;5375;51.250;6.776;2023-04-25T13:19:59;2.13;;;0.90;;
10653;SDS011;5375;51.250;6.776;2023-04-25T13:22:25;1.70;;;0.70;;
10653;SDS011;5375;51.250;6.776;2023-04-25T13:24:51;1.27;;;0.80;;
10653;SDS011;5375;51.250;6.776;2023-04-25T13:27:16;1.77;;;0.80;;
10653;SDS011;5375;51.250;6.776;2023-04-25T13:29:42;1.47;;;0.80;;
10653;SDS011;5375;51.250;6.776;2023-04-25T13:32:08;2.90;;;0.80;;
10653;SDS011;5375;51.250;6.776;2023-04-25T13:34:34;2.70;;;1.00;;
10653;SDS011;5375;51.250;6.776;2023-04-25T13:37:00;1.77;;;0.63;;
10653;SDS011;5375;51.250;6.776;2023-04-25T13:39:26;3.10;;;0.80;;
10653;SDS011;5375;51.250;6.776;2023-04-25T13:41:51;1.07;;;0.60;;
10653;SDS011;5375;51.250;6.776;2023-04-25T13:44:18;3.13;;;1.00;;
10653;SDS011;5375;51.250;6.776;2023-04-25T13:46:44;1.03;;;0.70;;
10653;SDS011;5375;51.250;6.776;2023-04-25T13:49:11;1.33;;;0.73;;
10653;SDS011;5375;51.250;6.776;2023-04-25T13:51:36;1.80;;;0.87;;
10653;SDS011;5375;51.250;6.776;2023-04-25T13:54:02;0.80;;;0.70;;
10653;SDS011;5375;51.250;6.776;2023-04-25T13:56:28;1.33;;;0.53;;
10653;SDS011;5375;51.250;6.776;2023-04-25T13:58:53;1.27;;;0.80;;
10653;SDS011;5375;51.250;6.776;2023-04-25T14:01:20;1.17;;;0.80;;
10653;SDS011;5375;51.250;6.776;2023-04-25T14:03:46;2.07;;;0.80;;
10653;SDS011;5375;51.250;6.776;2023-04-25T14:06:11;2.40;;;0.80;;
10653;SDS011;5375;51.250;6.776;2023-04-25T14:08:39;1.50;;;0.70;;
10653;SDS011;5375;51.250;6.776;2023-04-25T14:11:05;2.07;;;0.87;;
10653;SDS011;5375;51.250;6.776;2023-04-25T14:13:30;0.77;;;0.63;;
10653;SDS011;5375;51.250;6.776;2023-04-25T14:15:57;2.17;;;0.80;;
10653;SDS011;5375;51.250;6.776;2023-04-25T14:18:23;1.67;;;0.70;;
10653;SDS011;5375;51.250;6.776;2023-04-25T14:20:48;1.00;;;0.63;;
10653;SDS011;5375;51.250;6.776;2023-04-25T14:23:14;1.13;;;0.80;;
10653;SDS011;5375;51.250;6.776;2023-04-25T14:25:42;1.83;;;0.70;;
10653;SDS011;5375;51.250;6.776;2023-04-25T14:28:10;2.23;;;1.00;;
10653;SDS011;5375;51.250;6.776;2023-04-25T14:30:36;1.47;;;0.80;;
10653;SDS011;5375;51.250;6.776;2023-04-25T14:33:01;1.03;;;0.57;;
10653;SDS011;5375;51.250;6.776;2023-04-25T14:35:27;1.20;;;0.70;;
10653;SDS011;5375;51.250;6.776;2023-04-25T14:37:54;1.33;;;0.80;;
10653;SDS011;5375;51.250;6.776;2023-04-25T14:40:19;1.27;;;0.80;;
10653;SDS011;5375;51.250;6.776;2023-04-25T14:42:47;1.17;;;0.77;;
10653;SDS011;5375;51.250;6.776;2023-04-25T14:45:13;2.07;;;0.70;;
10653;SDS011;5375;51.250;6.776;2023-04-25T14:47:39;1.63;;;0.80;;
10653;SDS011;5375;51.250;6.776;2023-04-25T14:50:06;2.10;;;0.80;;
10653;SDS011;5375;51.250;6.776;2023-04-25T14:52:32;1.00;;;0.60;;
10653;SDS011;5375;51.250;6.776;2023-04-25T14:55:07;3.00;;;0.93;;
10653;SDS011;5375;51.250;6.776;2023-04-25T14:57:33;1.50;;;0.80;;
10653;SDS011;5375;51.250;6.776;2023-04-25T14:59:59;0.90;;;0.70;;
10653;SDS011;5375;51.250;6.776;2023-04-25T15:02:25;1.00;;;0.70;;
10653;SDS011;5375;51.250;6.776;2023-04-25T15:04:51;1.20;;;0.70;;
10653;SDS011;5375;51.250;6.776;2023-04-25T15:07:18;0.90;;;0.60;;
10653;SDS011;5375;51.250;6.776;2023-04-25T15:09:43;1.00;;;0.70;;
10653;SDS011;5375;51.250;6.776;2023-04-25T15:12:14;0.73;;;0.60;;
10653;SDS011;5375;51.250;6.776;2023-04-25T15:14:40;1.13;;;0.73;;
10653;SDS011;5375;51.250;6.776;2023-04-25T15:17:05;2.03;;;0.60;;